Time;durP1;ratioP1;P1;durP2;ratioP2;P2;SDS_P1;SDS_P2;PMS_P1;PMS_P2;Temp;Humidity;BMP_temperature;BMP_pressure;BME280_temperature;BME280_humidity;BME280_pressure;Samples;Min_cycle;Max_cycle;Signal;HPM_P1;HPM_P2
2022/06/20 00:04:05;;;;;;;8.75;1.95;;;;;;;17.67;60.69;100205.25;10453477;28;20037;-72
2022/06/20 00:09:06;;;;;;;8.57;2.20;;;;;;;18.15;60.80;100277.28;10453442;28;20098;-72
2022/06/20 00:14:15;;;;;;;18.25;2.13;;;;;;;18.01;62.59;100271.19;10452477;28;20091;-72
2022/06/20 00:19:16;;;;;;;21.60;2.75;;;;;;;17.01;61.47;100136.72;10453869;28;20044;-72
2022/06/20 00:24:17;;;;;;;11.13;2.45;;;;;;;17.86;62.13;100272.53;10452699;28;20091;-72
2022/06/20 00:29:18;;;;;;;11.38;2.08;;;;;;;17.89;62.57;100286.38;10453826;28;20110;-72
2022/06/20 00:34:18;;;;;;;22.92;2.60;;;;;;;16.75;62.79;100108.16;10452867;28;20075;-72
2022/06/20 00:39:21;;;;;;;179.75;13.13;;;;;;;17.83;63.64;100289.94;10453271;28;20088;-72
2022/06/20 00:44:28;;;;;;;137.93;13.05;;;;;;;17.61;64.67;100248.28;10453993;28;20037;-72
2022/06/20 00:49:34;;;;;;;19.83;2.85;;;;;;;17.64;63.72;100237.13;10459865;28;20099;-73
2022/06/20 00:54:49;;;;;;;11.32;2.30;;;;;;;17.85;64.25;100285.16;10460523;28;20127;-72
2022/06/20 01:00:00;;;;;;;8.73;2.20;;;;;;;17.55;63.75;100255.34;10460251;28;20048;-72
2022/06/20 03:06:45;;;;;;;11.45;2.25;;;;;;;23.56;47.99;100123.94;10290577;28;20446;-72
2022/06/20 03:11:46;;;;;;;31.05;4.05;;;;;;;25.30;46.67;100206.34;10245426;28;20050;-72
2022/06/20 03:16:46;;;;;;;10.05;2.55;;;;;;;25.77;45.60;100187.06;10245477;28;20055;-72
2022/06/20 03:21:49;;;;;;;15.93;2.88;;;;;;;26.16;44.54;100154.66;10245911;28;20114;-73
2022/06/20 03:26:51;;;;;;;7.30;2.33;;;;;;;26.98;43.12;100194.41;10246262;28;20039;-72
2022/06/20 03:31:53;;;;;;;8.27;2.00;;;;;;;27.89;41.31;100203.94;10244965;28;20079;-73
2022/06/20 03:36:54;;;;;;;13.90;2.50;;;;;;;28.59;40.11;100184.38;10245450;28;20103;-72
2022/06/20 03:41:56;;;;;;;11.85;2.70;;;;;;;29.51;37.93;100193.25;10245065;28;20086;-72
2022/06/20 03:47:07;;;;;;;25.08;3.88;;;;;;;30.03;35.48;100147.47;10245071;28;20067;-73
2022/06/20 03:52:15;;;;;;;14.02;2.35;;;;;;;30.71;34.48;100174.06;10244422;28;20043;-73
2022/06/20 03:57:24;;;;;;;19.05;2.58;;;;;;;30.98;33.22;100089.34;10204901;29;20043;-73
2022/06/20 04:02:48;;;;;;;10.10;2.13;;;;;;;32.13;32.26;100179.28;10200590;29;20056;-72
2022/06/20 04:10:57;;;;;;;8.75;2.40;;;;;;;32.26;31.98;100167.34;10175911;29;20500;-72
2022/06/20 04:13:56;;;;;;;12.82;2.53;;;;;;;31.87;32.14;100167.31;10172700;29;20048;-73
2022/06/20 04:19:25;;;;;;;25.10;3.35;;;;;;;32.34;32.90;100170.44;10177794;29;20080;-72
2022/06/20 04:24:44;;;;;;;14.10;3.15;;;;;;;32.27;31.94;100170.91;10174184;29;20056;-74
2022/06/20 04:29:50;;;;;;;7.20;2.65;;;;;;;31.76;32.18;100162.06;10174808;29;20048;-75
2022/06/20 04:35:02;;;;;;;9.52;3.00;;;;;;;32.01;30.95;100154.31;10176164;29;20048;-75
2022/06/20 04:40:23;;;;;;;10.88;3.28;;;;;;;31.93;31.71;100081.72;10175756;29;20040;-74
2022/06/20 04:45:32;;;;;;;11.60;3.40;;;;;;;31.08;33.26;100102.81;10175398;29;20048;-74
2022/06/20 04:50:34;;;;;;;8.63;2.55;;;;;;;31.24;33.70;100161.69;10176382;29;20063;-74
2022/06/20 04:55:40;;;;;;;12.13;2.85;;;;;;;31.26;33.36;100133.94;10175445;29;20460;-74
2022/06/20 05:00:44;;;;;;;13.38;2.20;;;;;;;31.52;33.16;100145.13;10175392;29;20048;-75
2022/06/20 05:05:50;;;;;;;9.15;2.67;;;;;;;31.96;33.31;100143.47;10176726;29;20508;-74
2022/06/20 05:11:01;;;;;;;7.55;2.80;;;;;;;32.04;33.08;100142.72;10176425;29;20040;-75
2022/06/20 05:16:05;;;;;;;9.85;3.05;;;;;;;31.93;33.75;100120.19;10189322;29;20040;-73
2022/06/20 05:21:35;;;;;;;9.55;2.92;;;;;;;31.92;33.87;100106.75;10175232;29;20464;-75
2022/06/20 05:26:40;;;;;;;7.35;2.85;;;;;;;31.90;32.58;100133.75;10171211;29;20277;-75
2022/06/20 05:31:45;;;;;;;7.90;2.90;;;;;;;31.66;33.33;100109.38;10172389;29;20058;-75
2022/06/20 05:37:06;;;;;;;14.55;2.53;;;;;;;31.71;31.81;100115.53;10174562;29;20546;-75
2022/06/20 05:42:18;;;;;;;11.32;2.42;;;;;;;31.63;31.38;100050.41;10174545;29;20044;-77
2022/06/20 05:47:22;;;;;;;34.38;2.85;;;;;;;32.37;32.51;100096.41;10174859;29;20033;-75
2022/06/20 05:52:25;;;;;;;8.48;2.47;;;;;;;32.29;30.26;100095.25;10174746;29;20095;-74
2022/06/20 05:57:29;;;;;;;7.10;2.83;;;;;;;32.32;30.52;100082.00;10174719;29;20080;-75
2022/06/20 06:02:42;;;;;;;8.65;2.40;;;;;;;32.68;27.58;100084.53;10171902;29;20059;-74
2022/06/20 06:08:00;;;;;;;11.82;2.35;;;;;;;33.11;28.33;100092.78;10173644;29;20076;-74
2022/06/20 06:13:36;;;;;;;8.93;2.08;;;;;;;32.89;24.99;99974.63;10173471;29;20519;-75
2022/06/20 06:18:45;;;;;;;11.88;2.00;;;;;;;33.64;24.62;100060.47;10170927;29;20044;-73
2022/06/20 06:23:47;;;;;;;13.68;1.92;;;;;;;33.40;24.21;99965.44;10174175;29;20052;-73
2022/06/20 06:28:50;;;;;;;7.95;1.85;;;;;;;34.11;24.06;100045.88;10173857;29;20048;-73
2022/06/20 06:33:58;;;;;;;7.15;1.77;;;;;;;34.37;23.03;100063.03;10172785;29;20040;-73
2022/06/20 06:39:10;;;;;;;7.90;1.58;;;;;;;34.46;22.91;100058.28;10172840;29;20043;-71
2022/06/20 06:44:32;;;;;;;15.35;2.35;;;;;;;34.53;23.29;100050.28;10172474;29;20101;-70
2022/06/20 06:49:44;;;;;;;9.45;2.10;;;;;;;33.19;23.60;99841.50;10169788;29;20083;-71
2022/06/20 06:55:23;;;;;;;13.18;1.90;;;;;;;34.62;22.35;100041.16;10171731;29;20142;-71
2022/06/20 07:00:28;;;;;;;13.68;2.00;;;;;;;34.59;23.74;100033.56;10173411;29;20522;-72
2022/06/20 07:05:37;;;;;;;8.38;2.15;;;;;;;34.81;22.97;100044.22;10173470;29;20099;-71
2022/06/20 07:10:52;;;;;;;11.65;2.58;;;;;;;35.13;23.55;100036.34;10172038;29;20130;-71
2022/06/20 07:15:58;;;;;;;6.78;1.85;;;;;;;34.68;23.13;99955.09;10171366;29;20140;-71
2022/06/20 07:20:58;;;;;;;29.80;3.42;;;;;;;35.25;22.65;100033.59;10173075;29;20059;-70
2022/06/20 07:25:59;;;;;;;3.45;1.50;;;;;;;35.10;21.58;100012.97;10172461;29;20047;-71
2022/06/20 07:31:18;;;;;;;8.20;2.03;;;;;;;35.07;20.52;100015.63;10171698;29;20052;-71
2022/06/20 07:36:25;;;;;;;6.85;1.70;;;;;;;34.06;21.56;99840.16;10173114;29;20044;-70
2022/06/20 07:41:35;;;;;;;7.22;1.73;;;;;;;35.24;20.92;100020.97;10176882;29;20047;-71
2022/06/20 07:46:58;;;;;;;5.85;1.75;;;;;;;35.22;20.36;100014.97;10175993;29;20048;-70
2022/06/20 07:52:29;;;;;;;22.10;2.00;;;;;;;34.58;20.81;99894.00;10209635;29;20494;-70
2022/06/20 07:57:43;;;;;;;5.65;2.00;;;;;;;35.64;21.38;99995.47;10177511;29;20044;-72
2022/06/20 08:02:49;;;;;;;12.07;2.50;;;;;;;35.64;20.84;100009.28;10178388;29;20068;-72
2022/06/20 08:08:02;;;;;;;5.28;1.40;;;;;;;35.58;19.15;100002.38;10178057;29;20040;-73
2022/06/20 08:13:29;;;;;;;8.13;1.90;;;;;;;35.35;20.30;99977.13;10177866;29;20047;-72
2022/06/20 08:18:30;;;;;;;6.68;1.85;;;;;;;34.86;20.15;99906.06;10179256;29;20052;-73
2022/06/20 08:23:39;;;;;;;9.27;1.67;;;;;;;35.03;19.95;99887.66;10177413;29;20051;-73
2022/06/20 08:28:54;;;;;;;16.08;2.20;;;;;;;35.70;20.55;99965.66;10176321;29;20087;-72
2022/06/20 08:34:19;;;;;;;16.70;2.28;;;;;;;35.95;19.72;99974.72;10177708;29;20043;-72
2022/06/20 08:39:29;;;;;;;3.45;2.05;;;;;;;35.86;20.17;99974.84;10176981;29;20518;-73
2022/06/20 08:44:57;;;;;;;13.02;2.53;;;;;;;36.04;20.64;99970.69;10177397;29;20127;-74
2022/06/20 08:50:25;;;;;;;5.38;1.85;;;;;;;36.20;20.66;99969.97;10177043;29;20054;-73
2022/06/20 08:55:37;;;;;;;8.68;1.60;;;;;;;36.12;19.85;99966.22;10176469;29;20230;-71
2022/06/20 09:01:15;;;;;;;2.83;1.80;;;;;;;36.15;19.55;99961.94;10174447;29;20051;-70
2022/06/20 09:06:40;;;;;;;2.65;1.40;;;;;;;36.13;18.98;99965.03;10176876;29;20516;-72
2022/06/20 09:12:06;;;;;;;6.40;2.13;;;;;;;36.14;18.73;99958.38;10175747;29;20527;-71
2022/06/20 09:17:28;;;;;;;3.72;1.67;;;;;;;36.05;18.80;99950.22;10174405;29;20052;-73
2022/06/20 09:23:00;;;;;;;3.55;1.63;;;;;;;36.16;18.99;99927.59;10176277;29;20511;-72
2022/06/20 09:28:15;;;;;;;;;;;;;;;36.55;18.77;99934.28;10171714;29;20047;-72
2022/06/20 09:33:38;;;;;;;5.15;1.60;;;;;;;36.22;19.64;99927.00;10175392;29;20013;-72
2022/06/20 09:38:50;;;;;;;14.73;2.05;;;;;;;36.07;19.73;99877.97;10174937;29;20044;-71
2022/06/20 09:44:13;;;;;;;3.83;1.48;;;;;;;36.09;18.84;99914.38;10175511;29;20048;-73
2022/06/20 09:49:47;;;;;;;7.90;1.90;;;;;;;36.18;19.03;99895.69;10174386;29;20079;-72
2022/06/20 09:55:12;;;;;;;8.55;1.88;;;;;;;36.23;19.53;99862.25;10174386;29;20870;-72
2022/06/20 10:00:45;;;;;;;4.72;1.50;;;;;;;36.65;19.10;99895.03;10173900;29;20047;-73
2022/06/20 10:06:06;;;;;;;10.68;1.98;;;;;;;36.05;19.56;99806.47;10171914;29;20060;-73
2022/06/20 10:11:42;;;;;;;20.58;2.22;;;;;;;36.55;19.44;99901.88;10174426;29;20063;-72
2022/06/20 10:16:54;;;;;;;10.40;2.25;;;;;;;36.67;18.91;99897.44;10161713;29;20044;-70
2022/06/20 10:22:19;;;;;;;4.03;1.70;;;;;;;36.18;19.21;99843.13;10156975;29;20048;-72
2022/06/20 10:27:41;;;;;;;6.25;1.95;;;;;;;36.39;18.93;99886.38;10151083;29;20051;-75
2022/06/20 10:32:42;;;;;;;11.07;1.88;;;;;;;36.46;19.44;99872.72;10151088;29;20039;-73
2022/06/20 10:38:08;;;;;;;43.78;3.40;;;;;;;36.65;19.62;99866.56;10148636;29;20135;-73
2022/06/20 10:43:32;;;;;;;3.22;1.75;;;;;;;36.36;18.26;99876.81;10159709;29;20044;-73
2022/06/20 10:49:05;;;;;;;10.35;1.85;;;;;;;36.32;19.24;99868.44;10150324;29;20048;-75
2022/06/20 10:54:42;;;;;;;3.85;1.70;;;;;;;35.76;19.97;99790.19;10155920;29;20064;-73
2022/06/20 10:59:45;;;;;;;34.60;3.33;;;;;;;36.28;19.27;99858.41;10158195;29;20037;-76
2022/06/20 11:05:18;;;;;;;20.20;2.92;;;;;;;36.64;19.57;99865.75;10150659;29;20539;-74
2022/06/20 11:11:01;;;;;;;6.55;1.73;;;;;;;36.58;18.70;99863.59;10150464;29;20040;-77
2022/06/20 11:16:26;;;;;;;3.58;1.55;;;;;;;36.25;19.55;99826.72;10154137;29;20044;-74
2022/06/20 11:21:46;;;;;;;6.70;1.67;;;;;;;36.39;19.07;99850.41;10155959;29;20043;-74
2022/06/20 11:27:02;;;;;;;7.97;2.03;;;;;;;35.51;18.61;99665.13;10156803;29;20045;-74
2022/06/20 11:32:06;;;;;;;3.17;1.90;;;;;;;36.89;19.47;99840.69;10156514;29;20036;-73
2022/06/20 11:37:28;;;;;;;12.27;1.77;;;;;;;37.34;18.62;99831.09;10155478;29;20408;-74
2022/06/20 11:43:21;;;;;;;12.18;2.05;;;;;;;37.33;18.20;99810.88;10163174;29;20048;-74
2022/06/20 11:48:39;;;;;;;13.98;2.78;;;;;;;36.65;18.85;99836.13;10164000;29;20048;-77
2022/06/20 11:54:17;;;;;;;8.48;1.90;;;;;;;36.58;18.91;99811.81;10155637;29;20048;-76
2022/06/20 11:59:29;;;;;;;6.03;1.75;;;;;;;36.29;19.12;99818.56;10155544;29;20039;-78
2022/06/20 12:04:44;;;;;;;7.25;1.98;;;;;;;35.78;19.10;99813.56;10155984;29;20116;-75
2022/06/20 12:10:14;;;;;;;7.97;1.58;;;;;;;35.43;20.19;99805.78;10161753;29;20048;-74
2022/06/20 12:15:24;;;;;;;9.80;2.10;;;;;;;35.25;20.20;99809.97;10161440;29;20050;-74
2022/06/20 12:26:00;;;;;;;9.80;2.00;;;;;;;36.02;19.98;99793.31;10175533;29;20047;-74
2022/06/20 12:31:18;;;;;;;6.00;1.80;;;;;;;36.17;19.17;99782.66;10172170;29;20079;-77
2022/06/20 12:36:29;;;;;;;10.43;2.22;;;;;;;36.07;18.71;99759.09;10167846;29;20040;-73
2022/06/20 12:41:34;;;;;;;;;;;;;;;36.46;18.41;99782.25;10172563;29;20051;-78
2022/06/20 12:46:57;;;;;;;6.13;1.58;;;;;;;36.06;19.00;99776.84;10171652;29;19930;-74
2022/06/20 12:52:12;;;;;;;16.23;2.47;;;;;;;34.96;19.20;99665.50;10171049;29;20043;-78
2022/06/20 12:57:28;;;;;;;9.10;1.80;;;;;;;35.62;19.17;99785.03;10167385;29;20052;-76
2022/06/20 13:03:15;;;;;;;22.92;2.78;;;;;;;35.56;19.83;99769.88;10156840;29;20137;-75
2022/06/20 13:08:32;;;;;;;12.18;2.33;;;;;;;35.03;20.08;99755.19;10158691;29;20071;-76
2022/06/20 13:13:57;;;;;;;9.07;1.85;;;;;;;34.94;20.12;99755.31;10161867;29;20091;-75
2022/06/20 13:19:15;;;;;;;6.20;1.80;;;;;;;34.37;20.49;99640.34;10155994;29;20470;-77
2022/06/20 13:24:47;;;;;;;5.88;1.80;;;;;;;35.13;20.23;99696.78;10158378;29;20099;-75
2022/06/20 13:29:53;;;;;;;18.33;2.35;;;;;;;35.82;19.57;99753.66;10160269;29;20126;-76
2022/06/20 13:35:02;;;;;;;25.60;2.33;;;;;;;35.83;19.26;99735.91;10172949;29;20048;-74
2022/06/20 13:40:27;;;;;;;8.55;2.00;;;;;;;35.96;18.59;99727.56;10157438;29;20076;-73
2022/06/20 13:45:55;;;;;;;14.38;1.92;;;;;;;35.65;19.84;99709.75;10165794;29;20039;-72
2022/06/20 13:51:19;;;;;;;36.80;3.33;;;;;;;35.37;19.99;99713.28;10172023;29;20059;-73
2022/06/20 13:56:25;;;;;;;8.23;1.63;;;;;;;35.43;19.79;99724.88;10163388;29;20052;-74
2022/06/20 14:01:37;;;;;;;6.00;1.77;;;;;;;35.56;20.19;99728.44;10161271;29;20048;-73
2022/06/20 14:06:51;;;;;;;12.90;1.80;;;;;;;35.32;19.54;99680.38;10163823;29;20063;-72
2022/06/20 14:12:01;;;;;;;5.88;1.70;;;;;;;35.36;19.96;99691.53;10152243;29;20097;-74
2022/06/20 14:17:15;;;;;;;3.30;1.73;;;;;;;34.61;20.25;99600.97;10149249;29;20043;-72
2022/06/20 14:22:21;;;;;;;11.65;2.83;;;;;;;35.19;19.33;99698.94;10160637;29;20056;-72
2022/06/20 14:27:26;;;;;;;13.57;1.63;;;;;;;34.58;19.59;99615.44;10170826;29;20582;-74
2022/06/20 14:32:34;;;;;;;23.85;3.42;;;;;;;34.84;19.27;99659.19;10172833;29;20051;-72
2022/06/20 14:38:16;;;;;;;51.30;5.05;;;;;;;34.25;19.86;99575.00;10187833;29;20051;-73
2022/06/20 14:43:34;;;;;;;15.20;2.17;;;;;;;34.34;19.59;99596.94;10168912;29;20067;-73
2022/06/20 14:48:59;;;;;;;18.20;2.22;;;;;;;34.87;20.14;99697.13;10172171;29;20067;-71
2022/06/20 14:54:49;;;;;;;44.22;3.63;;;;;;;34.69;20.24;99697.38;10171727;29;20068;-73
2022/06/20 15:00:03;;;;;;;6.30;1.83;;;;;;;34.50;20.71;99680.59;10169479;29;20084;-72
2022/06/20 15:05:32;;;;;;;4.22;1.73;;;;;;;34.45;20.42;99691.84;10169664;29;20070;-74
2022/06/20 15:10:58;;;;;;;13.55;2.10;;;;;;;34.43;20.78;99683.09;10172269;29;20048;-73
2022/06/20 15:16:23;;;;;;;21.50;2.42;;;;;;;34.34;20.33;99682.41;10171533;29;20492;-74
2022/06/20 15:21:30;;;;;;;28.65;3.17;;;;;;;34.20;20.82;99688.25;10171908;29;20083;-75
2022/06/20 15:26:34;;;;;;;6.72;2.13;;;;;;;34.06;20.77;99692.13;10170133;29;20052;-70
2022/06/20 15:31:41;;;;;;;21.52;2.85;;;;;;;33.14;21.29;99563.72;10171970;29;20040;-71
2022/06/20 15:36:43;;;;;;;17.42;2.40;;;;;;;33.59;21.72;99678.63;10172301;29;20056;-71
2022/06/20 15:47:19;;;;;;;9.65;2.10;;;;;;;32.51;22.43;99580.22;10171306;29;20046;-71
2022/06/20 15:52:51;;;;;;;30.38;2.88;;;;;;;32.71;22.58;99652.88;10170939;29;20469;-71
2022/06/20 15:58:13;;;;;;;37.05;3.58;;;;;;;32.72;22.88;99670.97;10170587;29;20040;-71
2022/06/20 16:03:40;;;;;;;39.15;3.50;;;;;;;31.89;23.19;99564.34;10176571;29;20114;-71
2022/06/20 16:09:07;;;;;;;24.95;3.55;;;;;;;32.24;23.24;99652.91;10177578;29;20052;-70
2022/06/20 16:14:19;;;;;;;15.50;2.80;;;;;;;31.92;23.10;99653.53;10177914;29;20072;-71
2022/06/20 16:19:32;;;;;;;20.15;3.25;;;;;;;31.15;24.03;99557.22;10177217;29;20075;-71
2022/06/20 16:25:13;;;;;;;26.20;3.83;;;;;;;31.63;24.70;99677.00;10176969;29;20076;-71
2022/06/20 16:30:28;;;;;;;18.53;2.40;;;;;;;30.73;23.43;99567.84;10151374;29;20055;-70
2022/06/20 16:35:30;;;;;;;13.43;1.90;;;;;;;31.17;24.20;99681.16;10177530;29;20059;-71
2022/06/20 16:40:44;;;;;;;68.95;6.20;;;;;;;31.01;24.11;99689.03;10176354;29;20501;-68
2022/06/20 16:46:11;;;;;;;10.00;2.17;;;;;;;30.79;23.94;99684.50;10174394;29;20059;-70
2022/06/20 16:51:20;;;;;;;14.75;1.98;;;;;;;29.77;24.21;99569.47;10174661;29;20044;-70
2022/06/20 16:56:29;;;;;;;13.55;2.60;;;;;;;30.34;24.30;99697.53;10177035;29;20400;-71
2022/06/20 17:01:47;;;;;;;20.08;2.25;;;;;;;30.16;24.57;99680.19;10176228;29;20046;-71
2022/06/20 17:06:58;;;;;;;46.03;4.32;;;;;;;29.88;24.31;99695.94;10178053;29;20055;-70
2022/06/20 17:12:18;;;;;;;30.50;4.47;;;;;;;29.66;24.46;99683.09;10176315;29;20036;-70
2022/06/20 17:17:22;;;;;;;55.35;5.63;;;;;;;29.24;24.95;99652.31;10171491;29;20088;-69
2022/06/20 17:22:46;;;;;;;33.50;4.30;;;;;;;29.16;24.68;99672.19;10199183;29;20045;-69
2022/06/20 17:28:01;;;;;;;26.23;3.55;;;;;;;29.04;25.31;99694.59;10154740;29;20585;-70
2022/06/20 17:33:35;;;;;;;26.65;3.95;;;;;;;28.90;24.93;99697.34;10159802;29;20033;-69
2022/06/20 17:39:07;;;;;;;52.65;6.75;;;;;;;28.67;25.53;99712.84;10165338;29;20056;-69
2022/06/20 17:44:19;;;;;;;47.17;5.63;;;;;;;28.47;25.22;99703.09;10165822;29;20048;-68
2022/06/20 17:49:49;;;;;;;16.00;2.63;;;;;;;28.27;25.19;99693.34;10164921;29;20047;-68
2022/06/20 17:54:59;;;;;;;8.85;1.77;;;;;;;28.16;25.22;99697.38;10165134;29;20048;-68
2022/06/20 18:00:13;;;;;;;18.60;1.98;;;;;;;27.97;26.08;99700.16;10162795;29;20401;-69
2022/06/20 18:05:20;;;;;;;17.08;2.20;;;;;;;27.31;25.76;99612.81;10154245;29;20066;-69
2022/06/20 18:10:58;;;;;;;12.30;1.73;;;;;;;27.23;25.78;99621.66;10149204;29;20425;-69
2022/06/20 18:16:17;;;;;;;7.40;1.52;;;;;;;27.61;25.53;99700.72;10177293;29;20100;-69
2022/06/20 18:21:50;;;;;;;5.43;1.58;;;;;;;26.46;26.47;99531.16;10151416;29;20066;-69
2022/06/20 18:27:02;;;;;;;11.13;1.50;;;;;;;27.39;25.90;99700.50;10150751;29;20067;-69
2022/06/20 18:32:09;;;;;;;6.30;1.55;;;;;;;27.12;26.75;99671.94;10188299;29;20040;-69
2022/06/20 18:37:19;;;;;;;13.20;1.67;;;;;;;27.24;26.60;99704.25;10173104;29;20559;-69
2022/06/20 18:42:20;;;;;;;4.60;1.38;;;;;;;26.91;26.85;99656.97;10188312;29;20068;-69
2022/06/20 18:47:39;;;;;;;5.00;1.13;;;;;;;26.48;27.34;99597.03;10172399;29;20036;-69
2022/06/20 18:52:49;;;;;;;8.35;1.77;;;;;;;26.71;27.85;99642.50;10173591;29;20044;-69
2022/06/20 18:58:31;;;;;;;4.20;1.40;;;;;;;26.79;27.45;99652.75;10173551;29;20556;-69
2022/06/20 19:03:50;;;;;;;5.30;1.23;;;;;;;26.85;27.48;99678.03;10172309;29;20059;-69
2022/06/20 19:09:18;;;;;;;5.10;1.42;;;;;;;26.70;28.44;99670.88;10172628;29;20040;-69
2022/06/20 19:14:28;;;;;;;5.97;1.55;;;;;;;26.60;28.72;99669.09;10133346;29;20049;-69
2022/06/20 19:20:02;;;;;;;13.38;1.70;;;;;;;26.49;28.94;99661.28;10147936;29;20043;-69
2022/06/20 19:25:13;;;;;;;8.93;1.52;;;;;;;24.84;29.28;99449.06;10187270;29;20048;-69
2022/06/20 19:30:35;;;;;;;18.77;1.73;;;;;;;26.05;29.79;99667.72;10170297;29;20508;-69
2022/06/20 19:35:42;;;;;;;6.90;1.77;;;;;;;25.82;30.56;99623.88;10174181;29;20115;-69
2022/06/20 19:40:51;;;;;;;9.82;1.50;;;;;;;25.85;30.38;99645.06;10176680;29;20067;-69
2022/06/20 19:45:51;;;;;;;12.13;1.40;;;;;;;25.71;30.94;99636.72;10179124;29;20048;-69
2022/06/20 19:50:52;;;;;;;8.32;1.35;;;;;;;25.61;31.12;99646.88;10179313;29;20036;-69
2022/06/20 19:56:01;;;;;;;11.63;1.58;;;;;;;25.48;32.25;99642.88;10179243;29;20535;-69
2022/06/20 20:01:02;;;;;;;15.23;2.00;;;;;;;25.34;31.96;99648.19;10179102;29;20551;-70
2022/06/20 20:06:06;;;;;;;13.95;2.17;;;;;;;25.26;33.05;99640.63;10193353;29;20068;-69
2022/06/20 20:11:11;;;;;;;12.93;1.67;;;;;;;24.81;32.96;99582.72;10177746;29;20048;-69
2022/06/20 20:16:18;;;;;;;14.88;2.03;;;;;;;24.96;33.18;99626.09;10178852;29;20047;-69
2022/06/20 20:21:35;;;;;;;14.27;2.40;;;;;;;24.87;33.66;99622.34;10192782;29;20044;-69
2022/06/20 20:26:58;;;;;;;14.65;2.00;;;;;;;24.71;34.75;99616.19;10177981;29;20040;-69
2022/06/20 20:32:14;;;;;;;11.38;1.92;;;;;;;24.55;36.26;99614.63;10179346;29;20044;-70
2022/06/20 20:37:15;;;;;;;12.15;1.80;;;;;;;24.41;35.54;99605.41;10177602;29;20080;-69
2022/06/20 20:42:34;;;;;;;10.45;1.80;;;;;;;24.40;36.47;99607.31;10177430;29;20091;-69
2022/06/20 20:47:39;;;;;;;11.20;1.65;;;;;;;24.29;36.29;99595.69;10174729;29;20040;-69
2022/06/20 20:52:49;;;;;;;13.73;1.60;;;;;;;23.58;36.63;99488.16;10176522;29;20054;-69
2022/06/20 20:57:56;;;;;;;14.07;1.70;;;;;;;24.04;36.97;99572.16;10177597;29;20131;-69
2022/06/20 21:03:05;;;;;;;15.07;1.85;;;;;;;24.17;37.83;99575.38;10176080;29;20131;-70
2022/06/20 21:08:19;;;;;;;6.57;1.48;;;;;;;23.39;38.54;99463.56;10207334;29;20047;-70
2022/06/20 21:13:22;;;;;;;8.25;2.13;;;;;;;23.68;38.05;99539.66;10176278;29;20087;-70
2022/06/20 21:18:29;;;;;;;17.17;2.13;;;;;;;23.73;39.82;99559.75;10175951;29;20044;-70
2022/06/20 21:23:41;;;;;;;9.60;1.88;;;;;;;23.59;40.83;99552.13;10175902;29;20044;-70
2022/06/20 21:28:43;;;;;;;9.38;1.60;;;;;;;23.43;39.45;99555.97;10176338;29;20040;-69
2022/06/20 21:34:05;;;;;;;11.30;1.80;;;;;;;23.31;40.58;99552.72;10173907;29;20489;-69
2022/06/20 21:39:12;;;;;;;9.32;1.65;;;;;;;22.45;41.16;99433.19;10190138;29;20051;-69
2022/06/20 21:44:15;;;;;;;9.52;1.80;;;;;;;22.25;42.49;99403.38;10175236;29;20103;-71
2022/06/20 21:49:19;;;;;;;13.57;1.80;;;;;;;22.32;42.53;99417.50;10172903;29;20099;-70
2022/06/20 21:54:30;;;;;;;11.13;2.47;;;;;;;22.92;42.92;99518.00;10174469;29;20111;-70
2022/06/20 21:59:37;;;;;;;6.25;1.52;;;;;;;22.78;43.99;99521.22;10175083;29;20044;-71
2022/06/20 22:04:40;;;;;;;10.88;1.98;;;;;;;22.56;43.80;99501.69;10173111;29;20417;-71
2022/06/20 22:09:43;;;;;;;;;;;;;;;22.72;42.48;99516.06;10174229;29;20465;-69
2022/06/20 22:14:48;;;;;;;8.63;2.00;;;;;;;22.30;44.61;99511.63;10173689;29;19953;-71
2022/06/20 22:19:50;;;;;;;10.90;1.67;;;;;;;22.08;44.76;99504.50;10173905;29;20044;-71
2022/06/20 22:24:51;;;;;;;5.43;1.23;;;;;;;21.33;45.61;99390.31;10174231;29;20475;-71
2022/06/20 22:29:55;;;;;;;11.32;1.73;;;;;;;21.96;47.05;99501.19;10174592;29;20075;-71
2022/06/20 22:35:04;;;;;;;6.57;1.35;;;;;;;21.76;47.80;99517.31;10172822;29;20117;-71
2022/06/20 22:40:14;;;;;;;6.65;1.83;;;;;;;21.65;48.41;99486.69;10188600;29;20098;-71
2022/06/20 22:45:31;;;;;;;6.15;1.77;;;;;;;21.58;48.83;99507.75;10172778;29;20082;-71
2022/06/20 22:50:34;;;;;;;7.72;1.90;;;;;;;20.68;48.73;99384.19;10171899;29;20091;-71
2022/06/20 22:55:57;;;;;;;5.88;1.55;;;;;;;21.19;50.35;99489.06;10170981;29;20488;-71
2022/06/20 23:01:13;;;;;;;10.57;2.70;;;;;;;21.01;51.17;99494.88;10173441;29;20040;-71
2022/06/20 23:06:14;;;;;;;8.00;1.90;;;;;;;20.67;50.46;99473.50;10172464;29;20505;-71
2022/06/20 23:11:15;;;;;;;8.52;1.80;;;;;;;20.71;50.41;99486.22;10178301;29;20048;-71
2022/06/20 23:21:38;;;;;;;11.45;2.30;;;;;;;20.46;51.71;99492.16;10180143;29;20068;-72
2022/06/20 23:26:39;;;;;;;6.40;1.85;;;;;;;20.18;51.73;99466.22;10179649;29;20091;-71
2022/06/20 23:31:45;;;;;;;12.93;2.10;;;;;;;19.78;53.43;99412.66;10180655;29;20036;-70
2022/06/20 23:36:46;;;;;;;7.25;1.80;;;;;;;20.14;53.22;99475.88;10194599;29;20036;-71
2022/06/20 23:41:47;;;;;;;6.70;1.95;;;;;;;19.92;53.18;99462.41;10179804;29;20047;-71
2022/06/20 23:46:47;;;;;;;8.50;1.75;;;;;;;19.93;54.04;99477.53;10194301;29;20412;-70
2022/06/20 23:51:49;;;;;;;11.20;2.47;;;;;;;19.72;54.99;99464.84;10178608;29;20504;-71
2022/06/20 23:56:50;;;;;;;7.13;2.03;;;;;;;19.59;54.95;99453.34;10193157;29;20035;-71
